Terminal Aerodrome Forecast
Issued by NWS

Home | Current Version | Previous Version | Text Only | Print | Product List | Glossary On
Versions: 1 2 3 4 5 6 7 8 9 10 11 12 13 14
223
FTUS43 KJKL 280542
TAFSJS
TAF
KSJS 280542Z 2806/2906 00000KT P6SM SKC
     FM281700 22007KT P6SM SCT200
     FM282300 29005KT P6SM VCSH BKN050
     FM290000 31004KT 6SM -RA BR OVC015
     FM290200 VRB03KT 4SM -RA BR OVC007=

USA.gov is the U.S. government's official web portal to all federal, state and local government web resources and services.